Sakai, Japan
Current Conditions -  °F | °C
As of 6:00 PM on Wednesday 22 Oct 2014 (Local Time) from RJBE Reporting Station
Broken Clouds Broken Clouds  
Wind Chill: 64°   Ceiling: 2500
Heat Index: 64°   Visibility: 6mi
Dew Point: 57°   Wind: 5mph
Humidity: 77%   Direction: NA
Pressure: 29.85"   Gusts: NA
Location:  34.57°N, 135.48°E
Report Text: RJBE 220900Z VRB04KT 9999 FEW010 BKN025 BKN060 18/14 Q1011
Loading
Personal Weather Stations






























Interactive Weather Map
Tropical Storm Tracking
New forecast layout! Learn more

10-Day Weather Forecast

Advertisements
Track Severe Weather on mobile